Time;durP1;ratioP1;P1;durP2;ratioP2;P2;SDS_P1;SDS_P2;PMS_P1;PMS_P2;Temp;Humidity;BMP_temperature;BMP_pressure;BME280_temperature;BME280_humidity;BME280_pressure;Samples;Min_cycle;Max_cycle;Signal;HPM_P1;HPM_P2
2021/11/02 00:00:15;;;;;;;;;77.75;62.25;;;;;11.82;86.87;101054.94;4936767;29;11594;-69
2021/11/02 00:03:11;;;;;;;;;75.25;60.00;;;;;11.73;87.27;101043.03;4923870;29;11548;-69
2021/11/02 00:06:07;;;;;;;;;80.00;67.00;;;;;11.82;87.58;101046.63;4935524;29;12342;-69
2021/11/02 00:09:07;;;;;;;;;89.00;79.25;;;;;11.84;87.37;101046.28;4936603;29;11551;-69
2021/11/02 00:12:03;;;;;;;;;86.33;76.67;;;;;11.80;87.64;101046.13;4936305;29;11588;-69
2021/11/02 00:14:58;;;;;;;;;89.75;80.75;;;;;11.89;87.71;101038.63;4936515;29;11748;-69
2021/11/02 00:17:57;;;;;;;;;85.25;73.25;;;;;11.76;88.59;101044.34;4935596;29;11637;-69
2021/11/02 00:20:59;;;;;;;;;89.50;77.00;;;;;11.84;88.67;101044.34;4936343;29;11565;-69
2021/11/02 00:24:08;;;;;;;;;88.75;78.50;;;;;11.81;88.53;101028.38;4936047;29;11601;-69
2021/11/02 00:27:03;;;;;;;;;92.25;85.75;;;;;11.70;89.21;101025.09;4917255;29;12328;-69
2021/11/02 00:29:59;;;;;;;;;107.67;96.00;;;;;11.74;89.29;101018.91;4917069;29;11578;-69
2021/11/02 00:32:58;;;;;;;;;92.67;86.33;;;;;11.75;89.24;101018.59;4923192;29;11584;-69
2021/11/02 00:35:54;;;;;;;;;116.33;114.67;;;;;11.75;89.50;101015.81;4936284;29;11565;-69
2021/11/02 00:38:50;;;;;;;;;87.33;74.67;;;;;11.73;89.73;101000.66;4936210;29;8857;-69
2021/11/02 00:41:46;;;;;;;;;76.75;61.75;;;;;11.67;90.03;100997.25;4935899;29;12367;-69
2021/11/02 00:44:44;;;;;;;;;70.75;55.75;;;;;11.72;89.63;100999.84;4935967;29;11661;-69
2021/11/02 00:47:40;;;;;;;;;71.25;56.00;;;;;11.85;89.20;101014.66;4936027;29;11554;-69
2021/11/02 00:50:37;;;;;;;;;88.75;72.50;;;;;11.69;89.80;100995.78;4923060;29;12375;-69
2021/11/02 00:53:32;;;;;;;;;93.50;85.50;;;;;11.80;89.46;100992.63;4935738;29;11618;-69
2021/11/02 00:56:28;;;;;;;;;87.75;78.75;;;;;11.78;89.37;101004.06;4935978;29;11607;-69
2021/11/02 00:59:23;;;;;;;;;93.00;89.00;;;;;11.80;89.43;101000.94;4935501;29;11721;-69
2021/11/02 01:02:19;;;;;;;;;110.33;100.67;;;;;11.82;89.19;100991.22;4935595;29;11678;-69
2021/11/02 01:05:14;;;;;;;;;85.75;73.25;;;;;11.79;89.43;100996.56;4935204;29;8835;-69
2021/11/02 01:08:10;;;;;;;;;91.00;81.75;;;;;11.81;89.54;100981.28;4935732;29;11569;-69
2021/11/02 01:11:06;;;;;;;;;91.50;81.75;;;;;11.82;89.58;100969.03;4934393;29;11684;-69
2021/11/02 01:14:04;;;;;;;;;78.50;63.75;;;;;11.77;89.77;100969.19;4935185;29;11668;-69
2021/11/02 01:16:59;;;;;;;;;92.67;89.00;;;;;11.75;89.86;100959.59;4935941;29;11593;-69
2021/11/02 01:19:55;;;;;;;;;101.67;96.00;;;;;11.67;90.37;100961.25;4935283;29;12488;-69
2021/11/02 01:22:52;;;;;;;;;110.67;104.67;;;;;11.73;89.96;100957.16;4935323;29;8839;-69
2021/11/02 01:25:48;;;;;;;;;122.67;110.33;;;;;11.76;90.11;100952.91;4935316;29;8843;-69
2021/11/02 01:28:44;;;;;;;;;94.33;89.00;;;;;11.77;90.34;100941.47;4921819;29;8963;-69
2021/11/02 01:31:39;;;;;;;;;90.67;80.33;;;;;11.76;90.32;100939.03;4935051;29;8839;-69
2021/11/02 01:34:35;;;;;;;;;84.75;72.50;;;;;11.74;90.36;100933.84;4934987;29;11601;-69
2021/11/02 01:37:31;;;;;;;;;77.25;61.25;;;;;11.80;90.24;100937.22;4934850;29;11567;-69
2021/11/02 01:40:27;;;;;;;;;78.00;63.25;;;;;11.79;90.55;100935.59;4934836;29;11672;-69
2021/11/02 01:43:23;;;;;;;;;98.33;90.67;;;;;11.81;90.33;100920.31;4921897;29;11552;-69
2021/11/02 01:46:28;;;;;;;;;92.67;81.33;;;;;11.89;90.03;100922.22;4922211;29;8846;-69
2021/11/02 01:49:24;;;;;;;;;99.67;94.33;;;;;11.83;90.33;100917.19;4935066;29;8835;-69
2021/11/02 01:52:20;;;;;;;;;94.33;90.67;;;;;11.92;90.13;100921.53;4934948;29;8926;-69
2021/11/02 01:55:16;;;;;;;;;109.00;99.00;;;;;11.84;90.41;100911.31;4934078;29;8859;-69
2021/11/02 01:58:14;;;;;;;;;102.00;99.00;;;;;11.86;90.45;100914.56;4934866;29;8850;-69
2021/11/02 02:01:22;;;;;;;;;97.67;90.33;;;;;11.93;90.31;100914.84;4903234;29;8849;-70
2021/11/02 02:04:36;;;;;;;;;110.33;100.00;;;;;11.91;90.35;100906.06;4903300;29;8848;-69
2021/11/02 02:08:13;;;;;;;;;119.33;112.67;;;;;11.98;90.26;100907.50;4915811;29;8841;-69
2021/11/02 02:11:31;;;;;;;;;103.33;98.67;;;;;11.92;90.30;100912.41;4915714;29;8844;-69
2021/11/02 02:15:01;;;;;;;;;93.00;86.25;;;;;12.06;90.09;100914.97;4915688;29;8837;-69
2021/11/02 02:18:36;;;;;;;;;77.50;61.75;;;;;12.08;89.82;100912.66;4915638;29;12342;-69
2021/11/02 02:21:59;;;;;;;;;69.25;56.25;;;;;12.11;89.67;100903.66;4915094;29;11550;-69
2021/11/02 02:25:31;;;;;;;;;47.75;42.25;;;;;12.10;90.11;100907.56;4915569;29;11663;-69
2021/11/02 02:28:38;;;;;;;;;41.50;38.50;;;;;12.16;90.25;100906.22;4915944;29;11489;-69
2021/11/02 02:31:40;;;;;;;;;39.50;34.75;;;;;12.16;89.95;100909.81;4934298;29;12237;-69
2021/11/02 02:34:37;;;;;;;;;34.75;34.00;;;;;12.15;89.91;100904.63;4934539;29;11241;-69
2021/11/02 02:37:33;;;;;;;;;38.25;37.00;;;;;12.22;89.56;100905.72;4934688;29;12249;-69
2021/11/02 02:40:30;;;;;;;;;39.75;37.00;;;;;12.32;89.25;100912.81;4934769;29;11179;-69
2021/11/02 02:43:28;;;;;;;;;37.75;36.00;;;;;12.47;88.70;100914.97;4938190;29;11248;-69
2021/11/02 02:46:24;;;;;;;;;35.75;35.00;;;;;12.42;88.86;100906.03;4938074;29;11144;-69
2021/11/02 02:49:22;;;;;;;;;33.25;31.75;;;;;12.46;88.87;100916.13;4925273;29;10992;-69
2021/11/02 02:52:19;;;;;;;;;34.50;33.75;;;;;12.51;88.56;100912.34;4919133;29;11059;-69
2021/11/02 02:55:16;;;;;;;;;29.75;29.50;;;;;12.46;88.49;100918.91;4906485;29;10945;-69
2021/11/02 02:58:13;;;;;;;;;32.25;32.25;;;;;12.63;88.22;100919.91;4919119;29;10737;-69
2021/11/02 03:01:11;;;;;;;;;37.75;36.25;;;;;12.71;87.53;100928.16;4918538;29;11976;-69
2021/11/02 03:04:13;;;;;;;;;32.75;32.75;;;;;12.72;87.46;100915.91;4919592;29;11184;-69
2021/11/02 03:07:09;;;;;;;;;38.25;36.25;;;;;12.66;87.60;100922.84;4919539;29;10981;-69
2021/11/02 03:10:06;;;;;;;;;30.75;30.50;;;;;12.46;88.49;100924.47;4919465;29;10923;-70
2021/11/02 03:13:08;;;;;;;;;30.50;30.50;;;;;12.48;88.35;100916.59;4919415;29;11109;-69
2021/11/02 03:16:08;;;;;;;;;34.75;34.50;;;;;12.68;87.55;100909.44;4919455;29;11032;-69
2021/11/02 03:54:34;;;;;;;;;34.75;34.25;;;;;12.57;88.41;100871.31;4936904;29;10907;-70
2021/11/02 04:01:00;;;;;;;;;30.75;30.75;;;;;12.69;88.07;100893.59;4936756;29;10971;-70
2021/11/02 05:50:35;;;;;;;;;24.50;23.25;;;;;12.56;91.44;100872.47;4934100;29;10998;-68
2021/11/02 05:53:39;;;;;;;;;30.50;30.50;;;;;12.51;92.36;100877.09;4934739;29;10980;-68
2021/11/02 05:56:49;;;;;;;;;35.00;34.75;;;;;12.46;93.10;100870.94;4917632;29;10768;-68
2021/11/02 06:00:06;;;;;;;;;32.25;32.25;;;;;12.58;92.69;100878.53;4934702;29;10773;-68
2021/11/02 06:09:21;;;;;;;;;35.00;35.00;;;;;12.41;94.44;100882.22;4915594;29;11431;-68
2021/11/02 06:29:19;;;;;;;;;41.25;37.00;;;;;12.11;96.68;100842.66;4938378;29;11393;-68
2021/11/02 06:32:28;;;;;;;;;47.50;41.00;;;;;12.15;96.89;100838.06;4938443;29;11503;-68
2021/11/02 06:35:29;;;;;;;;;55.00;46.75;;;;;12.16;96.79;100832.19;4932991;29;11526;-69
2021/11/02 06:38:54;;;;;;;;;50.75;43.75;;;;;12.23;96.66;100826.91;4924493;29;11483;-68
2021/11/02 07:10:52;;;;;;;;;49.50;42.25;;;;;12.90;93.74;100871.38;4937002;29;11496;-69
2021/11/02 07:18:07;;;;;;;;;57.50;48.75;;;;;12.93;93.77;100873.44;4936317;29;11733;-68
2021/11/02 07:21:20;;;;;;;;;51.25;44.25;;;;;12.97;94.17;100858.53;4937209;29;11602;-68
2021/11/02 07:24:29;;;;;;;;;48.75;43.00;;;;;12.79;94.62;100871.78;4937408;29;12253;-68
2021/11/02 08:46:57;;;;;;;;;33.50;33.50;;;;;13.47;91.84;100856.69;4935845;29;11201;-68
2021/11/02 08:49:53;;;;;;;;;33.00;33.00;;;;;13.45;92.05;100851.47;4931938;29;10428;-69
2021/11/02 08:52:52;;;;;;;;;23.75;23.75;;;;;13.50;91.90;100854.03;4933122;29;10618;-67
2021/11/02 08:55:52;;;;;;;;;20.25;20.25;;;;;13.58;91.59;100852.31;4934967;29;10222;-68
2021/11/02 08:58:50;;;;;;;;;30.25;29.75;;;;;13.52;91.41;100854.50;4932703;29;10356;-68
2021/11/02 09:01:57;;;;;;;;;26.00;25.50;;;;;13.53;91.82;100845.00;4935148;29;10443;-68
2021/11/02 09:05:09;;;;;;;;;22.75;22.75;;;;;13.61;91.29;100849.63;4932868;29;10407;-68
2021/11/02 09:08:10;;;;;;;;;21.00;21.00;;;;;13.50;91.52;100847.69;4935513;29;10308;-69
2021/11/02 09:11:06;;;;;;;;;25.75;25.75;;;;;13.55;91.82;100848.22;4934846;29;10122;-69
2021/11/02 09:14:01;;;;;;;;;20.00;20.00;;;;;13.57;91.83;100845.09;4922169;29;10284;-68
2021/11/02 09:16:58;;;;;;;;;27.00;26.50;;;;;13.60;91.76;100841.66;4922476;29;10178;-68
2021/11/02 09:19:56;;;;;;;;;26.75;25.75;;;;;13.69;91.26;100830.41;4935377;29;10260;-68
2021/11/02 09:22:53;;;;;;;;;24.25;24.25;;;;;13.59;91.51;100837.25;4903493;29;10464;-68
2021/11/02 09:25:51;;;;;;;;;30.25;30.25;;;;;13.58;91.69;100830.06;4916263;29;10024;-68
2021/11/02 09:28:49;;;;;;;;;24.75;24.75;;;;;13.74;91.34;100833.75;4915989;29;10375;-68
2021/11/02 09:31:45;;;;;;;;;15.50;13.00;;;;;13.72;91.26;100835.25;4916947;29;10216;-69
2021/11/02 09:34:42;;;;;;;;;27.50;27.50;;;;;13.75;91.28;100829.03;4916107;29;10207;-69
2021/11/02 09:37:42;;;;;;;;;27.75;27.75;;;;;13.81;91.40;100822.06;4916719;29;10240;-69
2021/11/02 09:41:08;;;;;;;;;27.50;26.25;;;;;13.82;91.12;100821.72;4922937;29;10318;-69
2021/11/02 09:44:13;;;;;;;;;26.00;25.50;;;;;13.84;91.09;100815.78;4915866;29;10296;-69
2021/11/02 09:47:42;;;;;;;;;28.25;27.25;;;;;13.84;90.88;100829.69;4929641;29;10129;-70
2021/11/02 09:51:26;;;;;;;;;36.75;34.00;;;;;13.77;91.00;100832.25;4934594;29;10383;-69
2021/11/02 09:54:43;;;;;;;;;29.25;29.25;;;;;13.80;91.18;100820.41;4921817;29;10512;-69
2021/11/02 09:58:11;;;;;;;;;29.50;28.00;;;;;13.80;91.63;100825.97;4916656;29;10406;-69
2021/11/02 10:01:42;;;;;;;;;29.75;29.75;;;;;13.77;91.61;100826.69;4903192;29;10129;-69
2021/11/02 10:04:43;;;;;;;;;32.00;32.00;;;;;13.87;91.09;100823.44;4915534;29;10596;-69
2021/11/02 10:08:02;;;;;;;;;35.00;33.75;;;;;13.86;91.12;100814.28;4915629;29;10357;-69
2021/11/02 10:11:33;;;;;;;;;35.75;34.75;;;;;13.80;91.61;100815.69;4918367;29;10233;-69
2021/11/02 10:14:32;;;;;;;;;31.50;30.25;;;;;13.81;91.77;100811.75;4917815;29;10394;-68
2021/11/02 10:17:54;;;;;;;;;33.50;32.50;;;;;13.89;91.54;100813.59;4934453;29;10231;-69
2021/11/02 10:21:02;;;;;;;;;31.75;30.75;;;;;13.89;91.75;100808.03;4934317;29;10655;-69
2021/11/02 10:24:13;;;;;;;;;41.25;35.50;;;;;13.76;92.00;100808.41;4921778;29;10523;-69
2021/11/02 10:27:09;;;;;;;;;32.00;28.75;;;;;13.84;92.15;100805.50;4934198;29;10450;-68
2021/11/02 10:30:28;;;;;;;;;36.50;35.25;;;;;13.90;92.11;100803.28;4914189;29;10304;-69
2021/11/02 10:33:35;;;;;;;;;35.25;34.50;;;;;13.94;92.29;100803.38;4915978;29;10421;-69
2021/11/02 10:36:53;;;;;;;;;37.25;35.00;;;;;13.96;92.01;100801.09;4915264;29;10496;-67
2021/11/02 10:39:57;;;;;;;;;44.00;39.00;;;;;13.94;92.68;100804.19;4913848;29;10576;-70
2021/11/02 10:43:01;;;;;;;;;39.00;34.75;;;;;14.04;92.72;100794.56;4897233;29;10963;-69
2021/11/02 10:46:05;;;;;;;;;41.50;38.00;;;;;14.02;92.62;100789.34;4915517;29;10642;-69
2021/11/02 10:49:38;;;;;;;;;47.00;41.75;;;;;14.15;92.14;100793.72;4916187;29;10925;-68
2021/11/02 10:52:39;;;;;;;;;39.25;36.50;;;;;14.21;92.14;100782.34;4913229;29;10676;-68
2021/11/02 10:56:04;;;;;;;;;45.75;39.25;;;;;14.19;92.80;100783.50;4925029;29;10586;-68
2021/11/02 10:59:01;;;;;;;;;36.50;35.50;;;;;14.22;92.77;100786.75;4914908;29;10638;-67
2021/11/02 11:01:58;;;;;;;;;43.75;37.25;;;;;14.26;92.84;100782.91;4916318;29;10426;-67
2021/11/02 11:04:58;;;;;;;;;44.50;37.75;;;;;14.29;93.29;100776.63;4919215;29;10712;-67
2021/11/02 11:07:58;;;;;;;;;48.50;41.25;;;;;14.22;93.93;100779.19;4918988;29;10646;-67
2021/11/02 11:10:57;;;;;;;;;41.00;37.50;;;;;14.23;94.32;100772.47;4918709;29;10588;-69
2021/11/02 11:13:59;;;;;;;;;43.00;37.00;;;;;14.24;94.27;100776.06;4917439;29;10585;-67
2021/11/02 11:16:57;;;;;;;;;35.00;33.50;;;;;14.31;94.34;100767.91;4919173;29;10741;-67
2021/11/02 11:20:09;;;;;;;;;45.75;39.25;;;;;14.35;94.19;100775.22;4918951;29;11277;-68
2021/11/02 11:23:10;;;;;;;;;46.75;40.50;;;;;14.37;94.63;100763.72;4918590;29;10499;-67
2021/11/02 11:26:06;;;;;;;;;48.50;42.50;;;;;14.40;94.23;100768.56;4918760;29;10858;-67
2021/11/02 11:29:05;;;;;;;;;45.25;39.50;;;;;14.45;94.33;100765.53;4920659;29;10875;-67
2021/11/02 11:32:01;;;;;;;;;48.25;41.00;;;;;14.50;94.64;100756.19;4936930;29;10704;-70
2021/11/02 11:34:58;;;;;;;;;52.25;44.50;;;;;14.44;95.06;100763.94;4936518;29;10597;-69
2021/11/02 11:37:53;;;;;;;;;47.25;40.25;;;;;14.49;95.23;100762.88;4936943;29;10835;-67
2021/11/02 11:40:49;;;;;;;;;47.75;41.75;;;;;14.52;95.41;100754.66;4936212;29;10600;-68
2021/11/02 11:43:48;;;;;;;;;47.50;39.75;;;;;14.51;95.53;100755.00;4936547;29;10811;-67
2021/11/02 11:46:47;;;;;;;;;49.50;42.75;;;;;14.52;95.81;100754.66;4923932;29;10506;-69
2021/11/02 11:49:46;;;;;;;;;52.00;44.00;;;;;14.59;95.27;100754.84;4928982;29;10525;-67
2021/11/02 11:52:44;;;;;;;;;45.00;39.50;;;;;14.59;95.32;100754.84;4932376;29;10596;-68
2021/11/02 11:55:44;;;;;;;;;47.50;40.00;;;;;14.58;95.60;100758.78;4936771;29;10677;-67
2021/11/02 11:58:54;;;;;;;;;44.50;37.50;;;;;14.61;95.81;100757.25;4936670;29;10658;-68
2021/11/02 12:02:10;;;;;;;;;52.00;44.00;;;;;14.59;96.33;100752.06;4921065;29;10381;-69
2021/11/02 12:05:17;;;;;;;;;48.50;40.50;;;;;14.58;96.43;100747.66;4935043;29;10676;-67
2021/11/02 12:08:21;;;;;;;;;52.25;41.50;;;;;14.63;96.42;100741.00;4935590;29;10427;-68
2021/11/02 12:11:19;;;;;;;;;47.00;39.75;;;;;14.63;96.65;100746.56;4936300;29;10644;-69
2021/11/02 12:14:20;;;;;;;;;50.75;40.50;;;;;14.67;96.54;100747.50;4935184;29;10425;-68
2021/11/02 12:17:17;;;;;;;;;54.75;44.75;;;;;14.66;96.77;100749.47;4926835;29;10602;-69
2021/11/02 12:20:15;;;;;;;;;47.25;41.50;;;;;14.77;96.25;100749.75;4918989;29;10922;-69
2021/11/02 12:23:30;;;;;;;;;52.50;43.25;;;;;14.75;96.14;100749.28;4926168;29;10655;-68
2021/11/02 12:26:38;;;;;;;;;46.75;40.50;;;;;14.78;96.36;100754.13;4923642;29;10692;-68
2021/11/02 12:29:35;;;;;;;;;44.00;38.75;;;;;14.78;96.93;100742.19;4935851;29;10750;-68
2021/11/02 12:32:32;;;;;;;;;54.25;45.50;;;;;14.87;96.37;100751.97;4923321;29;10458;-69
2021/11/02 12:35:42;;;;;;;;;49.25;41.00;;;;;14.89;96.51;100748.88;4934970;29;10724;-68
2021/11/02 12:38:42;;;;;;;;;53.00;45.00;;;;;14.82;97.20;100754.25;4917075;29;10442;-68
2021/11/02 12:41:47;;;;;;;;;50.00;42.75;;;;;14.89;97.31;100755.22;4933945;29;10719;-68
2021/11/02 12:44:44;;;;;;;;;43.00;39.00;;;;;14.91;97.13;100752.09;4935729;29;10702;-68
2021/11/02 12:47:43;;;;;;;;;50.75;42.00;;;;;15.00;97.26;100758.28;4935513;29;10667;-68
2021/11/02 12:50:39;;;;;;;;;48.00;42.00;;;;;15.01;97.16;100754.31;4931371;29;10564;-68
2021/11/02 12:53:37;;;;;;;;;52.00;43.00;;;;;15.08;97.24;100748.94;4935601;29;10792;-69
2021/11/02 12:56:34;;;;;;;;;51.00;43.00;;;;;15.11;97.21;100755.78;4934982;29;10745;-68
2021/11/02 12:59:35;;;;;;;;;48.25;41.75;;;;;15.12;97.55;100755.41;4925103;29;10478;-69
2021/11/02 13:02:36;;;;;;;;;53.00;45.00;;;;;15.18;97.15;100753.16;4916704;29;10289;-69
2021/11/02 13:05:31;;;;;;;;;44.25;39.75;;;;;15.20;97.23;100753.63;4916503;29;10690;-69
2021/11/02 13:08:30;;;;;;;;;52.50;45.75;;;;;15.18;97.36;100756.78;4917153;29;10532;-69
2021/11/02 13:11:30;;;;;;;;;49.75;42.25;;;;;15.25;97.26;100754.13;4931813;29;10540;-69
2021/11/02 13:15:02;;;;;;;;;53.50;45.00;;;;;15.26;97.20;100750.19;4933007;29;10792;-68
2021/11/02 13:18:00;;;;;;;;;52.50;45.00;;;;;15.33;96.58;100746.75;4914201;29;10540;-69
2021/11/02 13:21:20;;;;;;;;;52.50;44.00;;;;;15.34;96.82;100747.59;4922531;29;10736;-69
2021/11/02 13:24:20;;;;;;;;;55.00;44.75;;;;;15.39;96.47;100750.06;4934945;29;10754;-69
2021/11/02 13:27:17;;;;;;;;;54.75;45.25;;;;;15.41;96.12;100754.13;4932085;29;10675;-69
2021/11/02 13:30:37;;;;;;;;;52.25;42.50;;;;;15.33;96.28;100752.31;4927207;29;10825;-68
2021/11/02 13:33:56;;;;;;;;;55.50;47.25;;;;;15.37;96.19;100747.66;4935075;29;11466;-67
2021/11/02 13:37:07;;;;;;;;;45.50;39.50;;;;;15.37;96.37;100739.31;4935200;29;10692;-67
2021/11/02 13:40:03;;;;;;;;;55.75;45.75;;;;;15.38;96.33;100751.25;4934918;29;10717;-68
2021/11/02 13:42:59;;;;;;;;;56.50;47.25;;;;;15.39;96.39;100750.88;4934730;29;10956;-68
2021/11/02 13:45:55;;;;;;;;;54.25;45.50;;;;;15.41;96.13;100745.78;4922163;29;11017;-69
2021/11/02 13:48:52;;;;;;;;;56.00;47.75;;;;;15.45;95.71;100738.28;4933862;29;10871;-69
2021/11/02 13:51:52;;;;;;;;;55.50;46.00;;;;;15.46;95.90;100747.47;4934003;29;10834;-68
2021/11/02 13:54:21;;;;;;;;;53.75;46.25;;;;;15.45;95.88;100741.09;4934109;29;11078;-68
2021/11/02 13:56:50;;;;;;;;;60.00;50.50;;;;;15.43;95.76;100751.78;4918107;29;10608;-67
2021/11/02 13:59:17;;;;;;;;;59.00;49.50;;;;;15.49;95.87;100746.75;4934598;29;11012;-68
2021/11/02 14:01:52;;;;;;;;;62.00;49.75;;;;;15.45;95.87;100755.00;4934396;29;10937;-67
2021/11/02 14:04:41;;;;;;;;;55.75;45.50;;;;;15.44;95.84;100753.41;4933244;29;11147;-68
2021/11/02 14:07:37;;;;;;;;;62.75;50.00;;;;;15.36;96.21;100750.81;4934364;29;11014;-69
2021/11/02 14:10:34;;;;;;;;;53.00;45.00;;;;;15.37;95.87;100763.56;4922070;29;11084;-69
2021/11/02 14:13:44;;;;;;;;;54.00;44.75;;;;;15.37;96.06;100766.34;4921318;29;10923;-69
2021/11/02 14:16:43;;;;;;;;;52.00;44.50;;;;;15.47;95.62;100765.78;4930317;29;10785;-69
2021/11/02 14:19:43;;;;;;;;;54.25;45.00;;;;;15.47;95.44;100763.00;4916118;29;10545;-68
2021/11/02 14:22:50;;;;;;;;;55.25;45.75;;;;;15.42;95.86;100780.03;4915396;29;10762;-69
2021/11/02 14:25:45;;;;;;;;;61.25;48.50;;;;;15.35;96.16;100768.72;4915376;29;10843;-69
2021/11/02 14:29:10;;;;;;;;;56.75;48.00;;;;;15.37;95.80;100769.94;4914428;29;11028;-68
2021/11/02 14:31:38;;;;;;;;;59.75;48.75;;;;;15.36;96.27;100768.34;4932344;29;11051;-69
2021/11/02 14:34:37;;;;;;;;;59.25;49.00;;;;;15.48;95.54;100778.56;4934458;29;11005;-68
2021/11/02 14:37:53;;;;;;;;;59.25;48.25;;;;;15.41;95.61;100768.06;4934304;29;10986;-68
2021/11/02 14:40:52;;;;;;;;;55.75;47.00;;;;;15.42;95.59;100782.81;4925293;29;11190;-68
2021/11/02 14:43:48;;;;;;;;;59.50;50.50;;;;;15.40;95.84;100783.16;4937940;29;11074;-68
2021/11/02 14:46:20;;;;;;;;;62.50;51.25;;;;;15.36;95.98;100784.25;4938232;29;10992;-70
2021/11/02 14:49:27;;;;;;;;;58.00;48.75;;;;;15.24;96.77;100794.31;4936729;29;11178;-70
2021/11/02 14:52:26;;;;;;;;;57.00;47.75;;;;;14.95;98.14;100798.38;4937946;29;10900;-68
2021/11/02 14:54:54;;;;;;;;;57.50;47.75;;;;;15.17;96.24;100810.84;4920702;29;10929;-69
2021/11/02 14:57:51;;;;;;;;;58.75;47.75;;;;;15.03;97.08;100810.50;4924848;29;10615;-69
2021/11/02 15:00:47;;;;;;;;;56.50;47.50;;;;;15.15;96.01;100817.94;4937578;29;11027;-69
2021/11/02 15:04:07;;;;;;;;;50.50;43.50;;;;;15.13;96.27;100820.28;4937256;29;10922;-68
2021/11/02 15:06:37;;;;;;;;;55.25;46.25;;;;;15.05;96.35;100824.06;4922707;29;10929;-68
2021/11/02 15:09:21;;;;;;;;;50.25;41.00;;;;;15.07;95.82;100836.44;4936196;29;10700;-69
2021/11/02 15:12:17;;;;;;;;;42.75;39.00;;;;;14.89;96.55;100837.97;4937001;29;10712;-68
2021/11/02 15:15:01;;;;;;;;;41.00;36.25;;;;;14.60;97.28;100848.31;4920600;29;10684;-67
2021/11/02 15:17:29;;;;;;;;;36.50;35.50;;;;;14.65;96.59;100853.63;4936266;29;10279;-68
2021/11/02 15:20:32;;;;;;;;;34.00;33.25;;;;;14.73;96.10;100863.78;4937167;29;10461;-68
2021/11/02 15:23:00;;;;;;;;;32.00;31.25;;;;;14.69;96.09;100860.09;4916671;29;10361;-67
2021/11/02 15:25:28;;;;;;;;;30.50;29.75;;;;;14.51;96.50;100869.09;4920709;29;9979;-68
2021/11/02 15:28:24;;;;;;;;;30.75;30.75;;;;;14.53;96.43;100873.13;4918097;29;9996;-68
2021/11/02 15:31:21;;;;;;;;;33.00;30.50;;;;;14.11;96.57;100881.00;4906306;29;10149;-68
2021/11/02 15:34:14;;;;;;;;;29.00;29.00;;;;;14.24;96.75;100884.53;4904016;29;10147;-67
2021/11/02 15:37:14;;;;;;;;;36.00;34.25;;;;;13.90;98.35;100890.28;4926653;29;10203;-68
2021/11/02 15:40:13;;;;;;;;;43.25;36.50;;;;;14.18;97.18;100897.88;4937732;29;10372;-69
2021/11/02 15:43:12;;;;;;;;;43.25;39.25;;;;;13.94;97.17;100907.06;4936855;29;10491;-69
2021/11/02 15:46:08;;;;;;;;;33.25;33.25;;;;;13.84;95.91;100905.56;4922848;29;10867;-69
2021/11/02 15:48:36;;;;;;;;;39.00;35.75;;;;;13.80;97.16;100914.94;4937289;29;10295;-69
2021/11/02 15:51:03;;;;;;;;;30.25;29.75;;;;;13.70;96.97;100918.19;4937757;29;10618;-68
2021/11/02 15:54:05;;;;;;;;;31.50;31.50;;;;;13.58;97.44;100919.00;4936580;29;10451;-69
2021/11/02 15:57:11;;;;;;;;;32.00;31.75;;;;;13.53;98.17;100920.03;4923546;29;10528;-69
2021/11/02 16:00:09;;;;;;;;;27.50;25.50;;;;;13.68;97.45;100923.28;4936572;29;10570;-69
2021/11/02 16:02:39;;;;;;;;;30.50;30.00;;;;;13.69;96.55;100924.91;4904414;29;10293;-68
2021/11/02 16:05:11;;;;;;;;;26.00;25.75;;;;;13.73;95.92;100921.09;4937483;29;10237;-69
2021/11/02 16:08:20;;;;;;;;;26.25;26.25;;;;;13.45;96.76;100923.72;4936445;29;10395;-68
2021/11/02 16:10:53;;;;;;;;;24.50;24.50;;;;;13.54;96.00;100924.41;4936851;29;10289;-68
2021/11/02 16:13:49;;;;;;;;;26.25;25.75;;;;;13.43;97.23;100934.38;4936365;29;10851;-68
2021/11/02 16:16:49;;;;;;;;;26.50;25.50;;;;;13.36;96.37;100939.66;4935185;29;10379;-69
2021/11/02 16:19:46;;;;;;;;;25.00;24.75;;;;;13.37;96.50;100941.28;4923416;29;10283;-68
2021/11/02 16:22:14;;;;;;;;;24.75;22.50;;;;;13.03;98.06;100947.97;4936934;29;10031;-69
2021/11/02 16:24:42;;;;;;;;;25.00;25.00;;;;;13.20;97.54;100942.28;4936770;29;10144;-68
2021/11/02 16:27:21;;;;;;;;;26.25;26.00;;;;;13.32;96.72;100945.09;4904536;29;10360;-68
2021/11/02 16:30:19;;;;;;;;;22.00;22.00;;;;;13.31;96.35;100946.25;4923276;29;10626;-68
2021/11/02 16:33:16;;;;;;;;;33.25;32.50;;;;;13.44;96.57;100952.66;4935468;29;10371;-69
2021/11/02 16:36:21;;;;;;;;;35.25;33.25;;;;;13.25;96.07;100949.56;4933950;29;10697;-69
2021/11/02 16:39:23;;;;;;;;;33.75;33.75;;;;;13.31;96.15;100949.03;4936060;29;10680;-69
2021/11/02 16:42:24;;;;;;;;;46.75;39.75;;;;;13.31;95.81;100945.44;4933154;29;10615;-69
2021/11/02 16:45:17;;;;;;;;;38.00;36.25;;;;;13.25;95.59;100942.06;4935335;29;11001;-69
2021/11/02 16:48:12;;;;;;;;;46.50;41.00;;;;;13.28;95.78;100941.38;4935367;29;10766;-69
2021/11/02 16:51:10;;;;;;;;;48.75;42.25;;;;;13.27;96.32;100947.28;4922983;29;11010;-69
2021/11/02 16:54:11;;;;;;;;;52.50;44.25;;;;;13.06;96.33;100944.53;4928382;29;11213;-69
2021/11/02 16:57:07;;;;;;;;;44.25;39.50;;;;;13.16;95.71;100946.88;4904151;29;11357;-69
2021/11/02 17:00:11;;;;;;;;;51.25;44.00;;;;;13.07;95.89;100941.41;4920962;29;11414;-69
2021/11/02 17:02:45;;;;;;;;;57.25;47.00;;;;;12.85;97.04;100946.50;4936582;29;11605;-69
2021/11/02 17:05:24;;;;;;;;;63.00;50.00;;;;;12.92;96.82;100944.81;4936468;29;11689;-69
2021/11/02 17:08:20;;;;;;;;;55.50;46.75;;;;;13.05;95.88;100940.94;4935301;29;12275;-68
2021/11/02 17:10:52;;;;;;;;;61.00;51.25;;;;;13.07;95.27;100946.16;4936195;29;11543;-68
2021/11/02 17:13:49;;;;;;;;;64.25;51.00;;;;;13.08;94.85;100943.03;4935280;29;11480;-68
2021/11/02 17:16:50;;;;;;;;;64.00;51.25;;;;;13.14;94.86;100949.19;4934526;29;11495;-68
2021/11/02 17:19:19;;;;;;;;;57.75;49.00;;;;;13.15;94.36;100945.25;4936073;29;11543;-69
2021/11/02 17:22:00;;;;;;;;;60.75;50.25;;;;;13.11;93.44;100943.47;4935740;29;11518;-69
2021/11/02 17:24:31;;;;;;;;;63.75;52.75;;;;;13.14;93.46;100948.38;4915787;29;11700;-69
2021/11/02 17:26:59;;;;;;;;;62.00;48.75;;;;;12.95;93.69;100958.00;4931364;29;11643;-69
2021/11/02 17:29:28;;;;;;;;;57.75;44.25;;;;;13.11;92.98;100958.16;4919187;29;11568;-69
2021/11/02 17:31:56;;;;;;;;;68.25;45.00;;;;;13.18;92.64;100963.19;4936126;29;11498;-69
2021/11/02 17:34:52;;;;;;;;;61.25;49.50;;;;;13.01;92.76;100978.03;4922339;29;11612;-69
2021/11/02 17:37:51;;;;;;;;;56.75;47.00;;;;;13.05;92.90;100973.44;4933858;29;11618;-69
2021/11/02 17:40:48;;;;;;;;;53.00;44.25;;;;;13.01;92.55;100973.28;4917542;29;11595;-69
2021/11/02 17:43:51;;;;;;;;;55.75;45.50;;;;;12.95;93.01;100973.84;4929847;29;11618;-69
2021/11/02 17:46:46;;;;;;;;;52.75;45.50;;;;;13.06;92.78;100962.00;4914827;29;12401;-69
2021/11/02 17:49:15;;;;;;;;;54.75;47.00;;;;;13.04;92.96;100964.31;4932535;29;11667;-69
2021/11/02 17:51:58;;;;;;;;;60.50;51.25;;;;;13.12;92.70;100964.56;4934688;29;11540;-69
2021/11/02 17:54:28;;;;;;;;;57.25;47.00;;;;;12.97;93.33;100969.59;4934504;29;11528;-69
2021/11/02 17:56:56;;;;;;;;;48.00;40.75;;;;;13.06;92.69;100984.19;4935870;29;11510;-69
2021/11/02 17:59:25;;;;;;;;;54.50;44.75;;;;;12.71;93.59;100977.31;4935017;29;11265;-69
2021/11/02 18:02:20;;;;;;;;;32.00;32.00;;;;;12.78;92.88;100975.63;4934418;29;11479;-69
2021/11/02 18:04:49;;;;;;;;;43.00;39.00;;;;;12.87;92.71;100986.66;4935470;29;11085;-69
2021/11/02 18:07:17;;;;;;;;;46.50;41.25;;;;;12.99;92.13;100980.34;4918429;29;11160;-69
2021/11/02 18:09:46;;;;;;;;;35.00;34.25;;;;;12.99;92.36;100975.63;4935021;29;11076;-69